sensor_id;sensor_type;location;lat;lon;timestamp;pressure;altitude;pressure_sealevel;temperature;humidity
39223;BME280;24936;46.328;11.026;2022-12-22T00:00:45;94468.50;;;-1.24;94.49
39223;BME280;24936;46.328;11.026;2022-12-22T00:03:29;94462.13;;;-1.16;94.60
39223;BME280;24936;46.328;11.026;2022-12-22T00:06:13;94463.81;;;-1.15;94.24
39223;BME280;24936;46.328;11.026;2022-12-22T00:08:57;94459.06;;;-1.25;94.18
39223;BME280;24936;46.328;11.026;2022-12-22T00:11:41;94456.09;;;-1.55;94.33
39223;BME280;24936;46.328;11.026;2022-12-22T00:14:25;94449.31;;;-1.58;94.08
39223;BME280;24936;46.328;11.026;2022-12-22T00:17:25;94458.28;;;-1.66;94.74
39223;BME280;24936;46.328;11.026;2022-12-22T00:20:18;94446.81;;;-1.59;95.00
39223;BME280;24936;46.328;11.026;2022-12-22T00:23:02;94446.06;;;-1.42;94.82
39223;BME280;24936;46.328;11.026;2022-12-22T00:25:46;94445.66;;;-1.73;94.76
39223;BME280;24936;46.328;11.026;2022-12-22T00:28:31;94443.81;;;-1.90;94.83
39223;BME280;24936;46.328;11.026;2022-12-22T00:31:17;94435.56;;;-1.98;94.98
39223;BME280;24936;46.328;11.026;2022-12-22T00:34:01;94434.84;;;-2.02;94.93
39223;BME280;24936;46.328;11.026;2022-12-22T00:36:45;94430.97;;;-2.33;95.15
39223;BME280;24936;46.328;11.026;2022-12-22T00:39:29;94436.84;;;-2.08;95.42
39223;BME280;24936;46.328;11.026;2022-12-22T00:42:12;94433.63;;;-1.93;95.82
39223;BME280;24936;46.328;11.026;2022-12-22T00:44:56;94433.50;;;-2.10;95.51
39223;BME280;24936;46.328;11.026;2022-12-22T00:47:41;94431.22;;;-2.18;95.76
39223;BME280;24936;46.328;11.026;2022-12-22T00:50:30;94427.47;;;-2.32;95.51
39223;BME280;24936;46.328;11.026;2022-12-22T00:53:16;94427.88;;;-2.00;95.65
39223;BME280;24936;46.328;11.026;2022-12-22T00:56:02;94429.75;;;-1.82;95.78
39223;BME280;24936;46.328;11.026;2022-12-22T00:58:48;94432.44;;;-1.65;95.50
39223;BME280;24936;46.328;11.026;2022-12-22T01:01:32;94433.69;;;-1.55;95.87
39223;BME280;24936;46.328;11.026;2022-12-22T01:04:16;94429.31;;;-1.73;95.55
39223;BME280;24936;46.328;11.026;2022-12-22T01:07:00;94427.13;;;-1.62;95.67
39223;BME280;24936;46.328;11.026;2022-12-22T01:09:48;94422.59;;;-1.57;95.50
39223;BME280;24936;46.328;11.026;2022-12-22T01:12:35;94423.88;;;-1.46;95.46
39223;BME280;24936;46.328;11.026;2022-12-22T01:15:22;94423.88;;;-1.46;94.76
39223;BME280;24936;46.328;11.026;2022-12-22T01:18:06;94414.72;;;-1.54;94.99
39223;BME280;24936;46.328;11.026;2022-12-22T01:20:51;94423.94;;;-1.48;95.02
39223;BME280;24936;46.328;11.026;2022-12-22T01:23:35;94423.13;;;-1.29;95.14
39223;BME280;24936;46.328;11.026;2022-12-22T01:26:19;94416.97;;;-1.27;94.80
39223;BME280;24936;46.328;11.026;2022-12-22T01:29:04;94429.94;;;-1.47;94.93
39223;BME280;24936;46.328;11.026;2022-12-22T01:31:47;94429.06;;;-1.27;94.54
39223;BME280;24936;46.328;11.026;2022-12-22T01:34:31;94423.25;;;-1.13;94.99
39223;BME280;24936;46.328;11.026;2022-12-22T01:37:15;94427.38;;;-1.09;94.82
39223;BME280;24936;46.328;11.026;2022-12-22T01:39:59;94418.09;;;-1.13;94.99
39223;BME280;24936;46.328;11.026;2022-12-22T01:42:43;94420.88;;;-0.99;94.76
39223;BME280;24936;46.328;11.026;2022-12-22T01:45:30;94403.22;;;-1.08;94.46
39223;BME280;24936;46.328;11.026;2022-12-22T01:48:16;94406.84;;;-1.12;94.46
39223;BME280;24936;46.328;11.026;2022-12-22T01:51:08;94408.19;;;-1.23;95.03
39223;BME280;24936;46.328;11.026;2022-12-22T01:53:53;94399.09;;;-1.12;94.93
39223;BME280;24936;46.328;11.026;2022-12-22T01:56:38;94399.72;;;-1.07;94.95
39223;BME280;24936;46.328;11.026;2022-12-22T01:59:22;94400.09;;;-1.15;94.40
39223;BME280;24936;46.328;11.026;2022-12-22T02:02:07;94398.97;;;-1.09;94.24
39223;BME280;24936;46.328;11.026;2022-12-22T02:04:53;94402.31;;;-1.07;94.55
39223;BME280;24936;46.328;11.026;2022-12-22T02:25:44;94389.72;;;-0.96;94.66
39223;BME280;24936;46.328;11.026;2022-12-22T02:28:31;94391.75;;;-1.02;94.98
39223;BME280;24936;46.328;11.026;2022-12-22T02:31:15;94391.25;;;-0.91;94.69
39223;BME280;24936;46.328;11.026;2022-12-22T02:33:59;94388.41;;;-0.68;94.42
39223;BME280;24936;46.328;11.026;2022-12-22T02:36:53;94396.56;;;-0.40;94.10
39223;BME280;24936;46.328;11.026;2022-12-22T02:46:24;94383.50;;;-0.91;93.49
39223;BME280;24936;46.328;11.026;2022-12-22T02:49:20;94379.94;;;-0.89;93.85
39223;BME280;24936;46.328;11.026;2022-12-22T02:52:19;94380.63;;;-0.85;94.01
39223;BME280;24936;46.328;11.026;2022-12-22T02:55:05;94380.63;;;-0.85;93.85
39223;BME280;24936;46.328;11.026;2022-12-22T02:57:51;94385.34;;;-0.76;94.03
39223;BME280;24936;46.328;11.026;2022-12-22T03:00:36;94384.38;;;-0.73;93.72
39223;BME280;24936;46.328;11.026;2022-12-22T03:03:20;94386.81;;;-0.89;93.47
39223;BME280;24936;46.328;11.026;2022-12-22T03:06:04;94380.06;;;-0.92;93.42
39223;BME280;24936;46.328;11.026;2022-12-22T03:08:47;94378.97;;;-1.05;93.47
39223;BME280;24936;46.328;11.026;2022-12-22T03:11:31;94390.31;;;-1.08;93.92
39223;BME280;24936;46.328;11.026;2022-12-22T03:14:15;94395.03;;;-0.99;94.19
39223;BME280;24936;46.328;11.026;2022-12-22T03:16:59;94397.41;;;-1.13;94.00
39223;BME280;24936;46.328;11.026;2022-12-22T03:19:43;94394.28;;;-1.20;93.94
39223;BME280;24936;46.328;11.026;2022-12-22T03:22:27;94385.94;;;-1.08;93.95
39223;BME280;24936;46.328;11.026;2022-12-22T03:25:11;94379.81;;;-1.05;94.50
39223;BME280;24936;46.328;11.026;2022-12-22T03:28:01;94383.88;;;-0.82;94.35
39223;BME280;24936;46.328;11.026;2022-12-22T03:30:27;94385.50;;;-0.79;93.97
39223;BME280;24936;46.328;11.026;2022-12-22T03:32:53;94386.91;;;-0.91;93.81
39223;BME280;24936;46.328;11.026;2022-12-22T03:35:18;94379.97;;;-0.90;93.51
39223;BME280;24936;46.328;11.026;2022-12-22T03:37:43;94372.22;;;-0.90;93.87
39223;BME280;24936;46.328;11.026;2022-12-22T03:40:09;94365.78;;;-0.82;93.80
39223;BME280;24936;46.328;11.026;2022-12-22T03:42:34;94357.66;;;-0.74;93.98
39223;BME280;24936;46.328;11.026;2022-12-22T03:45:18;94350.06;;;-0.59;93.63
39223;BME280;24936;46.328;11.026;2022-12-22T03:51:38;94338.97;;;-0.62;93.11
39223;BME280;24936;46.328;11.026;2022-12-22T03:54:04;94348.13;;;-0.54;93.26
39223;BME280;24936;46.328;11.026;2022-12-22T03:56:29;94347.50;;;-0.77;93.30
39223;BME280;24936;46.328;11.026;2022-12-22T03:58:55;94352.97;;;-0.48;93.35
39223;BME280;24936;46.328;11.026;2022-12-22T04:01:20;94355.09;;;-0.56;92.74
39223;BME280;24936;46.328;11.026;2022-12-22T04:03:47;94351.69;;;-0.57;93.19
39223;BME280;24936;46.328;11.026;2022-12-22T04:06:13;94349.66;;;-0.50;93.10
39223;BME280;24936;46.328;11.026;2022-12-22T04:08:39;94348.19;;;-0.38;93.18
39223;BME280;24936;46.328;11.026;2022-12-22T04:11:04;94349.31;;;-0.62;92.56
39223;BME280;24936;46.328;11.026;2022-12-22T04:13:48;94342.75;;;-0.86;93.25
39223;BME280;24936;46.328;11.026;2022-12-22T04:16:14;94351.75;;;-0.58;93.24
39223;BME280;24936;46.328;11.026;2022-12-22T04:18:39;94360.03;;;-0.87;93.36
39223;BME280;24936;46.328;11.026;2022-12-22T04:21:04;94355.25;;;-0.77;93.53
39223;BME280;24936;46.328;11.026;2022-12-22T04:23:30;94354.84;;;-0.87;94.00
39223;BME280;24936;46.328;11.026;2022-12-22T04:25:55;94354.31;;;-0.94;94.21
39223;BME280;24936;46.328;11.026;2022-12-22T04:28:21;94352.31;;;-1.06;94.12
39223;BME280;24936;46.328;11.026;2022-12-22T04:30:51;94353.59;;;-1.15;94.34
39223;BME280;24936;46.328;11.026;2022-12-22T04:33:16;94362.09;;;-1.32;94.76
39223;BME280;24936;46.328;11.026;2022-12-22T04:35:42;94367.25;;;-1.32;95.05
39223;BME280;24936;46.328;11.026;2022-12-22T04:38:08;94370.03;;;-1.17;95.26
39223;BME280;24936;46.328;11.026;2022-12-22T04:40:33;94363.19;;;-0.99;95.47
39223;BME280;24936;46.328;11.026;2022-12-22T04:42:58;94351.69;;;-1.11;94.83
39223;BME280;24936;46.328;11.026;2022-12-22T04:45:24;94350.84;;;-1.12;95.24
39223;BME280;24936;46.328;11.026;2022-12-22T04:47:49;94352.31;;;-1.06;95.02
39223;BME280;24936;46.328;11.026;2022-12-22T04:50:15;94341.50;;;-1.14;95.05
39223;BME280;24936;46.328;11.026;2022-12-22T04:52:41;94321.44;;;-1.09;95.07
39223;BME280;24936;46.328;11.026;2022-12-22T04:55:06;94312.03;;;-1.10;95.00
39223;BME280;24936;46.328;11.026;2022-12-22T04:57:33;94319.91;;;-1.13;95.41
39223;BME280;24936;46.328;11.026;2022-12-22T04:59:59;94320.53;;;-0.90;94.88
39223;BME280;24936;46.328;11.026;2022-12-22T05:02:24;94316.22;;;-0.90;95.18
39223;BME280;24936;46.328;11.026;2022-12-22T05:04:49;94301.50;;;-0.70;94.95
39223;BME280;24936;46.328;11.026;2022-12-22T05:07:15;94304.47;;;-0.78;94.19
39223;BME280;24936;46.328;11.026;2022-12-22T05:09:40;94297.00;;;-0.67;94.28
39223;BME280;24936;46.328;11.026;2022-12-22T05:12:06;94302.72;;;-0.60;94.10
39223;BME280;24936;46.328;11.026;2022-12-22T05:14:51;94317.56;;;-0.64;94.36
39223;BME280;24936;46.328;11.026;2022-12-22T05:17:17;94330.16;;;-0.57;94.01
39223;BME280;24936;46.328;11.026;2022-12-22T05:19:43;94331.75;;;-0.55;94.15
39223;BME280;24936;46.328;11.026;2022-12-22T05:22:08;94319.06;;;-0.42;93.70
39223;BME280;24936;46.328;11.026;2022-12-22T05:24:33;94327.81;;;-0.44;93.71
39223;BME280;24936;46.328;11.026;2022-12-22T05:26:59;94318.22;;;-0.42;93.10
39223;BME280;24936;46.328;11.026;2022-12-22T05:29:25;94318.38;;;-0.45;93.15
39223;BME280;24936;46.328;11.026;2022-12-22T05:31:50;94330.25;;;-0.59;93.10
39223;BME280;24936;46.328;11.026;2022-12-22T05:34:15;94333.25;;;-0.68;93.19
39223;BME280;24936;46.328;11.026;2022-12-22T05:36:41;94336.25;;;-0.58;93.70
39223;BME280;24936;46.328;11.026;2022-12-22T05:39:06;94338.59;;;-0.54;93.89
39223;BME280;24936;46.328;11.026;2022-12-22T05:41:32;94333.22;;;-0.67;93.87
39223;BME280;24936;46.328;11.026;2022-12-22T05:43:57;94343.44;;;-0.83;94.27
39223;BME280;24936;46.328;11.026;2022-12-22T05:46:23;94345.81;;;-0.78;94.51
39223;BME280;24936;46.328;11.026;2022-12-22T05:48:48;94341.19;;;-0.71;94.68
39223;BME280;24936;46.328;11.026;2022-12-22T05:51:14;94342.53;;;-0.82;94.41
39223;BME280;24936;46.328;11.026;2022-12-22T05:53:39;94350.81;;;-0.75;94.67
39223;BME280;24936;46.328;11.026;2022-12-22T05:56:06;94341.06;;;-0.87;94.99
39223;BME280;24936;46.328;11.026;2022-12-22T05:58:33;94342.38;;;-0.79;94.46
39223;BME280;24936;46.328;11.026;2022-12-22T06:00:59;94331.22;;;-0.62;94.37
39223;BME280;24936;46.328;11.026;2022-12-22T06:03:26;94338.53;;;-0.70;93.84
39223;BME280;24936;46.328;11.026;2022-12-22T06:05:52;94336.03;;;-0.71;94.49
39223;BME280;24936;46.328;11.026;2022-12-22T06:08:18;94338.81;;;-0.58;94.45
39223;BME280;24936;46.328;11.026;2022-12-22T06:10:44;94336.69;;;-0.68;94.51
39223;BME280;24936;46.328;11.026;2022-12-22T06:13:10;94347.78;;;-0.48;94.22
39223;BME280;24936;46.328;11.026;2022-12-22T06:15:35;94341.56;;;-0.44;93.49
39223;BME280;24936;46.328;11.026;2022-12-22T06:18:00;94330.16;;;-0.40;93.61
39223;BME280;24936;46.328;11.026;2022-12-22T06:20:26;94330.88;;;-0.20;93.30
39223;BME280;24936;46.328;11.026;2022-12-22T06:22:51;94330.44;;;-0.11;93.41
39223;BME280;24936;46.328;11.026;2022-12-22T06:25:17;94324.50;;;-0.13;93.22
39223;BME280;24936;46.328;11.026;2022-12-22T06:27:42;94324.22;;;-0.24;92.56
39223;BME280;24936;46.328;11.026;2022-12-22T06:30:08;94326.19;;;-0.29;92.66
39223;BME280;24936;46.328;11.026;2022-12-22T06:32:36;94318.91;;;-0.21;92.64
39223;BME280;24936;46.328;11.026;2022-12-22T06:35:02;94316.75;;;-0.13;92.83
39223;BME280;24936;46.328;11.026;2022-12-22T06:37:27;94312.78;;;-0.20;93.28
39223;BME280;24936;46.328;11.026;2022-12-22T06:39:53;94324.41;;;-0.11;92.38
39223;BME280;24936;46.328;11.026;2022-12-22T06:42:18;94330.47;;;0.05;92.10
39223;BME280;24936;46.328;11.026;2022-12-22T06:45:02;94320.38;;;0.17;91.61
39223;BME280;24936;46.328;11.026;2022-12-22T06:47:27;94318.16;;;-0.07;91.48
39223;BME280;24936;46.328;11.026;2022-12-22T06:49:53;94330.22;;;-0.24;92.02
39223;BME280;24936;46.328;11.026;2022-12-22T06:52:18;94332.28;;;-0.31;92.53
39223;BME280;24936;46.328;11.026;2022-12-22T06:54:43;94335.78;;;-0.32;92.52
39223;BME280;24936;46.328;11.026;2022-12-22T06:57:09;94337.44;;;-0.31;92.61
39223;BME280;24936;46.328;11.026;2022-12-22T06:59:34;94337.91;;;-0.40;92.62
39223;BME280;24936;46.328;11.026;2022-12-22T07:02:00;94336.81;;;-0.01;92.39
39223;BME280;24936;46.328;11.026;2022-12-22T07:04:25;94336.03;;;-0.03;91.52
39223;BME280;24936;46.328;11.026;2022-12-22T07:06:51;94342.19;;;-0.21;91.65
39223;BME280;24936;46.328;11.026;2022-12-22T07:09:16;94340.16;;;0.02;91.92
39223;BME280;24936;46.328;11.026;2022-12-22T07:11:42;94337.69;;;0.16;91.80
39223;BME280;24936;46.328;11.026;2022-12-22T07:14:10;94336.50;;;0.06;91.49
39223;BME280;24936;46.328;11.026;2022-12-22T07:16:35;94346.72;;;-0.09;91.13
39223;BME280;24936;46.328;11.026;2022-12-22T07:19:01;94357.13;;;-0.10;91.70
39223;BME280;24936;46.328;11.026;2022-12-22T07:21:26;94344.72;;;-0.04;91.84
39223;BME280;24936;46.328;11.026;2022-12-22T07:23:52;94337.41;;;0.05;91.47
39223;BME280;24936;46.328;11.026;2022-12-22T07:26:17;94349.91;;;-0.04;92.05
39223;BME280;24936;46.328;11.026;2022-12-22T07:28:43;94348.91;;;-0.01;91.86
39223;BME280;24936;46.328;11.026;2022-12-22T07:31:09;94344.84;;;0.11;91.88
39223;BME280;24936;46.328;11.026;2022-12-22T07:33:36;94346.88;;;0.22;91.48
39223;BME280;24936;46.328;11.026;2022-12-22T07:36:12;94354.16;;;0.31;91.16
39223;BME280;24936;46.328;11.026;2022-12-22T07:38:41;94355.88;;;0.48;90.60
39223;BME280;24936;46.328;11.026;2022-12-22T07:41:08;94346.75;;;0.57;90.42
39223;BME280;24936;46.328;11.026;2022-12-22T07:43:54;94361.22;;;0.45;90.39
39223;BME280;24936;46.328;11.026;2022-12-22T07:46:20;94364.81;;;0.58;89.87
39223;BME280;24936;46.328;11.026;2022-12-22T07:48:46;94360.56;;;0.57;89.63
39223;BME280;24936;46.328;11.026;2022-12-22T07:51:34;94364.31;;;0.68;89.56
39223;BME280;24936;46.328;11.026;2022-12-22T07:54:03;94365.00;;;0.87;88.75
39223;BME280;24936;46.328;11.026;2022-12-22T07:56:29;94364.81;;;0.74;89.01
39223;BME280;24936;46.328;11.026;2022-12-22T07:58:54;94358.56;;;0.79;89.32
39223;BME280;24936;46.328;11.026;2022-12-22T08:01:20;94371.25;;;0.83;88.84
39223;BME280;24936;46.328;11.026;2022-12-22T08:03:45;94370.50;;;1.13;88.55
39223;BME280;24936;46.328;11.026;2022-12-22T08:06:11;94373.34;;;0.93;88.39
39223;BME280;24936;46.328;11.026;2022-12-22T08:08:36;94378.78;;;0.72;88.98
39223;BME280;24936;46.328;11.026;2022-12-22T08:11:03;94363.41;;;0.69;89.51
39223;BME280;24936;46.328;11.026;2022-12-22T08:13:28;94362.22;;;1.06;88.52
39223;BME280;24936;46.328;11.026;2022-12-22T08:15:53;94360.66;;;1.04;88.15
39223;BME280;24936;46.328;11.026;2022-12-22T08:18:19;94363.47;;;0.99;88.43
39223;BME280;24936;46.328;11.026;2022-12-22T08:20:49;94364.16;;;0.87;89.34
39223;BME280;24936;46.328;11.026;2022-12-22T08:23:17;94361.06;;;0.96;89.56
39223;BME280;24936;46.328;11.026;2022-12-22T08:25:44;94363.66;;;1.12;88.35
39223;BME280;24936;46.328;11.026;2022-12-22T08:28:13;94369.09;;;1.08;88.32
39223;BME280;24936;46.328;11.026;2022-12-22T08:30:41;94376.88;;;1.08;88.24
39223;BME280;24936;46.328;11.026;2022-12-22T08:33:06;94361.22;;;1.25;88.04
39223;BME280;24936;46.328;11.026;2022-12-22T08:35:39;94357.78;;;1.25;87.50
39223;BME280;24936;46.328;11.026;2022-12-22T08:38:05;94357.28;;;1.48;86.98
39223;BME280;24936;46.328;11.026;2022-12-22T08:40:31;94353.94;;;1.46;86.67
39223;BME280;24936;46.328;11.026;2022-12-22T08:43:01;94354.97;;;1.44;86.88
39223;BME280;24936;46.328;11.026;2022-12-22T08:45:27;94356.06;;;1.40;86.88
39223;BME280;24936;46.328;11.026;2022-12-22T08:48:11;94362.09;;;1.40;86.56
39223;BME280;24936;46.328;11.026;2022-12-22T08:50:36;94350.91;;;1.24;87.26
39223;BME280;24936;46.328;11.026;2022-12-22T08:53:06;94347.28;;;1.42;86.69
39223;BME280;24936;46.328;11.026;2022-12-22T08:55:31;94343.84;;;1.42;86.28
39223;BME280;24936;46.328;11.026;2022-12-22T08:57:57;94353.94;;;1.32;86.45
39223;BME280;24936;46.328;11.026;2022-12-22T09:00:23;94352.25;;;1.31;86.97
39223;BME280;24936;46.328;11.026;2022-12-22T09:02:48;94358.63;;;1.25;87.62
39223;BME280;24936;46.328;11.026;2022-12-22T09:05:14;94351.44;;;0.98;87.93
39223;BME280;24936;46.328;11.026;2022-12-22T09:07:39;94356.78;;;1.11;88.30
39223;BME280;24936;46.328;11.026;2022-12-22T09:10:07;94349.41;;;1.19;87.95
39223;BME280;24936;46.328;11.026;2022-12-22T09:12:32;94351.72;;;1.40;87.35
39223;BME280;24936;46.328;11.026;2022-12-22T09:14:58;94352.41;;;1.28;87.06
39223;BME280;24936;46.328;11.026;2022-12-22T09:17:23;94350.91;;;1.54;86.90
39223;BME280;24936;46.328;11.026;2022-12-22T09:19:49;94350.19;;;1.52;86.45
39223;BME280;24936;46.328;11.026;2022-12-22T09:22:14;94343.75;;;1.74;86.36
39223;BME280;24936;46.328;11.026;2022-12-22T09:24:39;94339.81;;;1.97;85.60
39223;BME280;24936;46.328;11.026;2022-12-22T09:27:05;94338.94;;;1.82;84.96
39223;BME280;24936;46.328;11.026;2022-12-22T09:29:34;94322.84;;;2.49;82.97
39223;BME280;24936;46.328;11.026;2022-12-22T09:32:00;94313.41;;;2.75;82.09
39223;BME280;24936;46.328;11.026;2022-12-22T09:34:25;94315.31;;;2.59;81.87
39223;BME280;24936;46.328;11.026;2022-12-22T09:36:50;94320.81;;;2.40;82.91
39223;BME280;24936;46.328;11.026;2022-12-22T09:39:16;94317.75;;;2.19;83.73
39223;BME280;24936;46.328;11.026;2022-12-22T09:41:54;94323.63;;;2.22;84.04
39223;BME280;24936;46.328;11.026;2022-12-22T09:44:32;94311.91;;;2.44;83.48
39223;BME280;24936;46.328;11.026;2022-12-22T09:47:00;94316.56;;;2.81;81.66
39223;BME280;24936;46.328;11.026;2022-12-22T09:49:27;94319.91;;;2.83;82.16
39223;BME280;24936;46.328;11.026;2022-12-22T09:52:00;94311.94;;;3.13;81.06
39223;BME280;24936;46.328;11.026;2022-12-22T09:54:28;94315.91;;;4.63;76.86
39223;BME280;24936;46.328;11.026;2022-12-22T09:56:53;94313.22;;;5.01;75.04
39223;BME280;24936;46.328;11.026;2022-12-22T09:59:20;94311.53;;;5.25;74.13
39223;BME280;24936;46.328;11.026;2022-12-22T10:09:50;94305.97;;;4.18;76.20
39223;BME280;24936;46.328;11.026;2022-12-22T10:12:18;94313.66;;;3.67;78.38
39223;BME280;24936;46.328;11.026;2022-12-22T10:14:49;94311.97;;;3.79;78.39
39223;BME280;24936;46.328;11.026;2022-12-22T10:19:41;94318.44;;;3.74;78.92
39223;BME280;24936;46.328;11.026;2022-12-22T10:22:30;94318.16;;;3.91;78.20
39223;BME280;24936;46.328;11.026;2022-12-22T10:24:59;94321.47;;;4.06;79.16
39223;BME280;24936;46.328;11.026;2022-12-22T10:27:29;94325.75;;;4.20;77.67
39223;BME280;24936;46.328;11.026;2022-12-22T10:30:16;94328.88;;;4.12;77.04
39223;BME280;24936;46.328;11.026;2022-12-22T10:32:42;94325.31;;;4.01;76.84
39223;BME280;24936;46.328;11.026;2022-12-22T10:35:08;94314.34;;;3.70;76.74
39223;BME280;24936;46.328;11.026;2022-12-22T10:37:35;94315.31;;;3.69;77.00
39223;BME280;24936;46.328;11.026;2022-12-22T10:40:30;94313.75;;;3.92;78.00
39223;BME280;24936;46.328;11.026;2022-12-22T10:42:57;94322.41;;;3.92;77.53
39223;BME280;24936;46.328;11.026;2022-12-22T10:45:25;94327.63;;;3.92;77.41
39223;BME280;24936;46.328;11.026;2022-12-22T10:47:54;94322.50;;;3.91;78.30
39223;BME280;24936;46.328;11.026;2022-12-22T10:50:21;94309.13;;;3.57;78.99
39223;BME280;24936;46.328;11.026;2022-12-22T10:52:56;94306.72;;;3.41;79.56
39223;BME280;24936;46.328;11.026;2022-12-22T10:55:24;94307.41;;;3.83;79.37
39223;BME280;24936;46.328;11.026;2022-12-22T10:57:50;94305.75;;;3.82;78.37
39223;BME280;24936;46.328;11.026;2022-12-22T11:00:30;94313.91;;;3.63;78.97
39223;BME280;24936;46.328;11.026;2022-12-22T11:02:58;94303.94;;;3.70;78.96
39223;BME280;24936;46.328;11.026;2022-12-22T11:05:24;94286.72;;;3.41;79.31
39223;BME280;24936;46.328;11.026;2022-12-22T11:07:49;94285.97;;;3.26;80.03
39223;BME280;24936;46.328;11.026;2022-12-22T11:10:36;94294.63;;;3.40;79.84
39223;BME280;24936;46.328;11.026;2022-12-22T11:15:47;94276.22;;;3.43;79.10
39223;BME280;24936;46.328;11.026;2022-12-22T11:18:31;94295.03;;;3.33;79.73
39223;BME280;24936;46.328;11.026;2022-12-22T11:21:15;94284.09;;;3.94;78.02
39223;BME280;24936;46.328;11.026;2022-12-22T11:23:50;94273.44;;;3.59;78.56
39223;BME280;24936;46.328;11.026;2022-12-22T11:26:40;94269.81;;;3.21;79.54
39223;BME280;24936;46.328;11.026;2022-12-22T11:32:26;94249.91;;;3.47;78.23
39223;BME280;24936;46.328;11.026;2022-12-22T11:48:25;94224.91;;;3.45;77.70
39223;BME280;24936;46.328;11.026;2022-12-22T11:51:11;94223.88;;;3.47;78.26
39223;BME280;24936;46.328;11.026;2022-12-22T11:56:42;94196.16;;;6.14;70.19
39223;BME280;24936;46.328;11.026;2022-12-22T11:59:46;94195.16;;;9.51;61.58
39223;BME280;24936;46.328;11.026;2022-12-22T12:02:26;94187.06;;;10.85;55.09
39223;BME280;24936;46.328;11.026;2022-12-22T12:07:53;94178.09;;;11.86;50.53
39223;BME280;24936;46.328;11.026;2022-12-22T12:10:30;94175.03;;;13.28;46.49
39223;BME280;24936;46.328;11.026;2022-12-22T12:15:34;94175.72;;;11.39;50.57
39223;BME280;24936;46.328;11.026;2022-12-22T12:18:25;94167.59;;;11.50;50.59
39223;BME280;24936;46.328;11.026;2022-12-22T12:21:24;94166.59;;;10.23;54.31
39223;BME280;24936;46.328;11.026;2022-12-22T12:24:14;94158.81;;;10.87;52.36
39223;BME280;24936;46.328;11.026;2022-12-22T12:32:23;94154.41;;;9.84;54.71
39223;BME280;24936;46.328;11.026;2022-12-22T12:34:49;94145.47;;;10.05;54.24
39223;BME280;24936;46.328;11.026;2022-12-22T12:37:32;94147.75;;;11.01;51.63
39223;BME280;24936;46.328;11.026;2022-12-22T12:42:42;94136.69;;;9.29;56.44
39223;BME280;24936;46.328;11.026;2022-12-22T12:50:54;94130.56;;;10.61;53.83
39223;BME280;24936;46.328;11.026;2022-12-22T12:53:24;94124.09;;;10.28;54.47
39223;BME280;24936;46.328;11.026;2022-12-22T13:03:53;94113.94;;;10.61;54.33
39223;BME280;24936;46.328;11.026;2022-12-22T13:06:50;94122.69;;;9.95;56.04
39223;BME280;24936;46.328;11.026;2022-12-22T13:09:20;94115.19;;;10.38;54.71
39223;BME280;24936;46.328;11.026;2022-12-22T13:11:46;94121.47;;;9.90;55.15
39223;BME280;24936;46.328;11.026;2022-12-22T13:17:38;94133.25;;;9.76;57.33
39223;BME280;24936;46.328;11.026;2022-12-22T13:20:12;94125.00;;;10.08;55.92
39223;BME280;24936;46.328;11.026;2022-12-22T13:22:41;94110.91;;;10.09;54.75
39223;BME280;24936;46.328;11.026;2022-12-22T13:25:14;94118.53;;;9.45;56.78
39223;BME280;24936;46.328;11.026;2022-12-22T13:27:40;94118.63;;;9.73;56.24
39223;BME280;24936;46.328;11.026;2022-12-22T13:30:12;94116.28;;;10.82;53.79
39223;BME280;24936;46.328;11.026;2022-12-22T13:32:39;94122.44;;;9.89;55.82
39223;BME280;24936;46.328;11.026;2022-12-22T13:37:44;94114.72;;;8.51;59.49
39223;BME280;24936;46.328;11.026;2022-12-22T13:40:24;94120.28;;;7.13;62.94
39223;BME280;24936;46.328;11.026;2022-12-22T13:42:52;94125.84;;;5.65;67.30
39223;BME280;24936;46.328;11.026;2022-12-22T13:45:27;94114.38;;;5.09;69.37
39223;BME280;24936;46.328;11.026;2022-12-22T13:47:54;94116.09;;;4.50;71.04
39223;BME280;24936;46.328;11.026;2022-12-22T13:50:25;94116.75;;;4.04;73.24
39223;BME280;24936;46.328;11.026;2022-12-22T13:52:53;94135.38;;;3.60;74.79
39223;BME280;24936;46.328;11.026;2022-12-22T13:55:28;94130.19;;;3.34;75.84
39223;BME280;24936;46.328;11.026;2022-12-22T13:58:11;94122.59;;;3.05;76.40
39223;BME280;24936;46.328;11.026;2022-12-22T14:00:43;94115.56;;;2.80;76.89
39223;BME280;24936;46.328;11.026;2022-12-22T14:03:17;94115.94;;;2.61;79.04
39223;BME280;24936;46.328;11.026;2022-12-22T14:05:43;94121.94;;;2.36;78.86
39223;BME280;24936;46.328;11.026;2022-12-22T14:08:09;94115.97;;;2.06;80.66
39223;BME280;24936;46.328;11.026;2022-12-22T14:10:40;94113.41;;;1.92;82.01
39223;BME280;24936;46.328;11.026;2022-12-22T14:13:14;94125.41;;;1.80;82.39
39223;BME280;24936;46.328;11.026;2022-12-22T14:15:41;94128.81;;;1.80;83.51
39223;BME280;24936;46.328;11.026;2022-12-22T14:18:13;94133.38;;;1.62;83.78
39223;BME280;24936;46.328;11.026;2022-12-22T14:20:39;94131.38;;;1.39;83.18
39223;BME280;24936;46.328;11.026;2022-12-22T14:25:39;94116.44;;;1.13;85.11
39223;BME280;24936;46.328;11.026;2022-12-22T14:28:13;94127.75;;;1.27;85.40
39223;BME280;24936;46.328;11.026;2022-12-22T14:30:42;94127.56;;;1.30;85.25
39223;BME280;24936;46.328;11.026;2022-12-22T14:33:32;94124.22;;;1.71;85.35
39223;BME280;24936;46.328;11.026;2022-12-22T14:38:55;94145.22;;;1.09;85.57
39223;BME280;24936;46.328;11.026;2022-12-22T14:44:11;94129.16;;;1.89;83.52
39223;BME280;24936;46.328;11.026;2022-12-22T14:46:39;94129.03;;;1.34;84.27
39223;BME280;24936;46.328;11.026;2022-12-22T14:49:04;94137.53;;;1.21;85.52
39223;BME280;24936;46.328;11.026;2022-12-22T14:51:30;94138.75;;;1.59;85.26
39223;BME280;24936;46.328;11.026;2022-12-22T14:53:57;94138.63;;;1.75;84.42
39223;BME280;24936;46.328;11.026;2022-12-22T14:56:24;94133.31;;;2.06;83.72
39223;BME280;24936;46.328;11.026;2022-12-22T14:59:07;94136.63;;;1.51;83.70
39223;BME280;24936;46.328;11.026;2022-12-22T15:01:36;94145.31;;;1.21;84.77
39223;BME280;24936;46.328;11.026;2022-12-22T15:06:34;94146.88;;;0.95;86.08
39223;BME280;24936;46.328;11.026;2022-12-22T15:11:34;94157.22;;;0.65;87.18